Time;durP1;ratioP1;P1;durP2;ratioP2;P2;SDS_P1;SDS_P2;PMS_P1;PMS_P2;Temp;Humidity;BMP_temperature;BMP_pressure;BME280_temperature;BME280_humidity;BME280_pressure;Samples;Min_cycle;Max_cycle;Signal;HPM_P1;HPM_P2
2022/03/17 00:00:37;;;;;;;160.40;70.85;;;;;;;1.66;60.04;99749.72;5009595;28;20101;-65
2022/03/17 00:03:03;;;;;;;165.23;68.55;;;;;;;1.60;60.51;99749.53;5013353;28;20057;-65
2022/03/17 00:05:29;;;;;;;160.18;67.75;;;;;;;1.54;60.39;99742.22;5013995;28;20034;-65
2022/03/17 00:07:54;;;;;;;157.65;68.90;;;;;;;1.51;60.72;99749.91;5013778;28;20033;-65
2022/03/17 00:10:20;;;;;;;193.55;79.90;;;;;;;1.43;60.17;99746.34;5012983;28;20108;-65
2022/03/17 00:12:47;;;;;;;184.48;78.13;;;;;;;1.39;60.68;99745.09;5013234;28;20026;-66
2022/03/17 00:15:13;;;;;;;175.93;73.47;;;;;;;1.35;60.50;99749.25;5012835;28;20520;-66
2022/03/17 00:17:41;;;;;;;186.82;79.85;;;;;;;1.29;60.62;99745.47;5013381;28;20026;-65
2022/03/17 00:20:07;;;;;;;185.68;78.18;;;;;;;1.26;60.74;99750.47;5012730;28;20030;-65
2022/03/17 00:22:33;;;;;;;196.07;81.45;;;;;;;1.23;60.92;99753.56;5012818;28;20025;-65
2022/03/17 00:24:59;;;;;;;204.32;80.85;;;;;;;1.22;60.73;99757.31;5013354;28;20373;-65
2022/03/17 00:27:25;;;;;;;187.30;78.00;;;;;;;1.23;61.05;99751.69;5013642;28;20026;-65
2022/03/17 00:29:51;;;;;;;199.23;83.03;;;;;;;1.21;61.43;99747.53;5012939;28;20022;-64
2022/03/17 00:32:17;;;;;;;212.45;86.50;;;;;;;1.19;61.31;99747.75;5012825;28;20456;-65
2022/03/17 00:37:27;;;;;;;205.20;85.10;;;;;;;1.16;61.29;99732.75;5012606;28;20107;-65
2022/03/17 00:39:53;;;;;;;205.88;85.80;;;;;;;1.12;60.93;99734.19;5012617;28;20014;-65
2022/03/17 00:42:19;;;;;;;204.60;85.78;;;;;;;1.09;60.96;99739.19;5012278;28;20057;-65
2022/03/17 00:44:46;;;;;;;197.18;80.72;;;;;;;1.04;60.95;99734.38;5012881;28;20030;-65
2022/03/17 00:47:13;;;;;;;179.60;78.00;;;;;;;1.03;60.99;99741.66;5010766;28;20473;-65
2022/03/17 00:49:39;;;;;;;168.57;74.35;;;;;;;0.99;60.75;99739.56;5012562;28;20025;-65
2022/03/17 00:52:11;;;;;;;189.85;80.97;;;;;;;0.93;60.88;99741.19;5012055;28;20041;-65
2022/03/17 00:54:39;;;;;;;183.38;75.57;;;;;;;0.91;60.99;99742.44;5012994;28;20026;-65
2022/03/17 00:57:05;;;;;;;184.80;75.88;;;;;;;0.88;61.66;99738.25;5012985;28;20088;-65
2022/03/17 00:59:30;;;;;;;191.48;78.57;;;;;;;0.86;61.85;99743.88;5012778;28;20060;-65
2022/03/17 01:01:55;;;;;;;181.70;74.45;;;;;;;0.85;61.35;99744.06;5012433;28;20120;-66
2022/03/17 01:04:21;;;;;;;156.32;67.15;;;;;;;0.83;61.59;99746.97;5013045;28;20033;-65
2022/03/17 01:06:46;;;;;;;166.80;69.88;;;;;;;0.79;61.38;99748.41;5012892;28;20525;-65
2022/03/17 01:09:12;;;;;;;173.02;71.60;;;;;;;0.73;61.28;99752.75;5012315;28;20036;-65
2022/03/17 01:11:37;;;;;;;173.40;73.50;;;;;;;0.67;61.72;99756.25;5012063;28;20556;-65
2022/03/17 01:14:02;;;;;;;182.52;74.88;;;;;;;0.65;61.05;99747.50;5011346;28;20026;-65
2022/03/17 01:16:28;;;;;;;178.55;75.20;;;;;;;0.60;61.28;99752.66;5012033;28;20693;-65
2022/03/17 01:18:53;;;;;;;185.18;75.13;;;;;;;0.56;61.75;99751.41;5011876;28;20030;-65
2022/03/17 01:21:19;;;;;;;206.10;82.57;;;;;;;0.51;61.85;99753.84;5011968;28;20101;-65
2022/03/17 01:23:44;;;;;;;195.05;77.38;;;;;;;0.48;62.48;99747.00;5011937;28;20091;-66
2022/03/17 01:26:09;;;;;;;199.18;80.22;;;;;;;0.45;62.13;99750.09;5009573;28;20037;-65
2022/03/17 01:28:35;;;;;;;202.57;81.38;;;;;;;0.43;61.93;99747.56;5011857;28;20037;-65
2022/03/17 01:31:00;;;;;;;197.23;76.53;;;;;;;0.43;62.09;99744.06;5012203;28;20057;-65
2022/03/17 01:33:26;;;;;;;195.15;76.25;;;;;;;0.42;62.21;99740.50;5011793;28;20022;-66
2022/03/17 01:35:51;;;;;;;199.35;75.60;;;;;;;0.42;62.18;99734.28;5012532;28;20030;-65
2022/03/17 01:38:17;;;;;;;173.20;72.70;;;;;;;0.40;61.78;99742.59;5011948;28;20041;-66
2022/03/17 01:40:42;;;;;;;179.15;73.05;;;;;;;0.39;61.97;99731.97;5012023;28;20022;-65
2022/03/17 01:43:07;;;;;;;183.27;74.15;;;;;;;0.36;62.05;99735.06;5011648;28;20026;-66
2022/03/17 01:45:33;;;;;;;171.68;70.18;;;;;;;0.35;62.49;99730.72;5011808;28;20493;-65
2022/03/17 01:47:58;;;;;;;155.23;63.30;;;;;;;0.33;61.95;99730.94;5011923;28;20029;-65
2022/03/17 01:50:24;;;;;;;149.98;64.07;;;;;;;0.34;62.02;99734.44;5011325;28;20028;-65
2022/03/17 01:52:50;;;;;;;149.63;63.95;;;;;;;0.30;62.05;99736.72;5008646;28;20025;-65
2022/03/17 01:55:19;;;;;;;149.68;63.08;;;;;;;0.28;62.17;99736.91;5011926;28;20040;-65
2022/03/17 01:57:46;;;;;;;143.95;62.67;;;;;;;0.29;61.89;99737.75;5011709;28;20116;-65
2022/03/17 02:00:17;;;;;;;148.10;64.53;;;;;;;0.28;62.30;99744.16;5011113;28;20157;-66
2022/03/17 02:02:47;;;;;;;157.10;66.80;;;;;;;0.27;61.99;99746.03;5011324;28;20033;-65
2022/03/17 02:05:13;;;;;;;169.27;68.65;;;;;;;0.27;62.73;99743.31;5011002;28;20441;-66
2022/03/17 02:07:41;;;;;;;166.65;69.95;;;;;;;0.29;62.37;99746.66;5011245;28;20014;-65
2022/03/17 02:10:06;;;;;;;160.13;69.47;;;;;;;0.29;62.56;99762.84;5010849;28;20048;-66
2022/03/17 02:15:16;;;;;;;180.40;73.40;;;;;;;0.33;62.72;99754.34;5011501;28;20049;-65
2022/03/17 02:17:43;;;;;;;205.75;79.40;;;;;;;0.32;62.53;99764.34;5011230;28;20026;-65
2022/03/17 02:20:11;;;;;;;190.70;75.90;;;;;;;0.31;62.51;99759.13;5010544;28;20510;-66
2022/03/17 02:22:47;;;;;;;191.32;75.43;;;;;;;0.28;62.51;99760.38;5008475;28;20067;-65
2022/03/17 02:25:36;;;;;;;174.23;72.10;;;;;;;0.26;62.55;99760.53;5010412;28;20018;-64
2022/03/17 02:28:06;;;;;;;141.50;64.95;;;;;;;0.20;62.83;99761.34;5011443;28;20033;-65
2022/03/17 02:30:35;;;;;;;139.38;62.95;;;;;;;0.19;62.73;99773.19;5011657;28;20026;-65
2022/03/17 02:33:07;;;;;;;163.50;69.47;;;;;;;0.13;62.61;99779.34;5011632;28;20041;-65
2022/03/17 02:35:33;;;;;;;157.48;67.82;;;;;;;0.07;62.82;99789.03;5012331;28;20026;-65
2022/03/17 02:38:02;;;;;;;165.38;69.43;;;;;;;0.02;63.13;99796.06;5012196;28;20037;-65
2022/03/17 02:40:28;;;;;;;149.70;64.90;;;;;;;-0.02;63.34;99801.84;5011749;28;20033;-65
2022/03/17 02:42:53;;;;;;;153.40;65.78;;;;;;;-0.03;63.45;99802.03;5011531;28;20030;-65
2022/03/17 02:45:19;;;;;;;142.38;62.38;;;;;;;-0.03;63.59;99810.13;5011820;28;20318;-65
2022/03/17 02:47:45;;;;;;;128.77;61.13;;;;;;;-0.02;63.62;99812.63;5012077;28;20030;-66
2022/03/17 02:50:11;;;;;;;134.00;61.38;;;;;;;0.04;64.03;99810.19;5011220;28;20406;-66
2022/03/17 02:52:37;;;;;;;144.65;65.55;;;;;;;0.05;63.24;99809.16;5010902;28;20034;-65
2022/03/17 02:55:03;;;;;;;132.70;62.60;;;;;;;0.08;63.63;99803.38;5011717;28;20116;-65
2022/03/17 02:57:28;;;;;;;131.13;61.45;;;;;;;0.09;63.57;99805.03;5011477;28;20171;-66
2022/03/17 02:59:54;;;;;;;136.48;62.90;;;;;;;0.10;63.67;99807.53;5011175;28;20030;-66
2022/03/17 03:02:20;;;;;;;124.82;57.60;;;;;;;0.16;63.54;99808.63;5011093;28;20466;-65
2022/03/17 03:04:46;;;;;;;122.60;59.80;;;;;;;0.21;63.76;99808.03;5010124;28;20390;-66
2022/03/17 03:07:11;;;;;;;111.07;54.15;;;;;;;0.32;63.83;99806.66;5011572;28;20033;-66
2022/03/17 03:09:37;;;;;;;116.25;56.75;;;;;;;0.35;63.85;99808.97;5011219;28;20117;-65
2022/03/17 03:12:03;;;;;;;113.82;55.53;;;;;;;0.47;63.98;99822.75;5010559;28;20481;-66
2022/03/17 03:14:29;;;;;;;109.47;52.15;;;;;;;0.51;64.02;99824.03;5011057;28;20481;-66
2022/03/17 03:16:54;;;;;;;109.72;53.50;;;;;;;0.54;63.38;99829.06;5010171;28;20069;-66
2022/03/17 03:19:20;;;;;;;109.60;53.58;;;;;;;0.51;63.38;99826.75;5010942;28;20096;-67
2022/03/17 03:21:45;;;;;;;106.93;53.10;;;;;;;0.50;63.33;99830.47;5011206;28;20061;-65
2022/03/17 03:24:11;;;;;;;108.28;52.85;;;;;;;0.49;63.53;99826.09;5011443;28;20030;-66
2022/03/17 03:26:40;;;;;;;102.30;50.42;;;;;;;0.53;63.44;99832.78;5011474;28;20527;-65
2022/03/17 03:29:10;;;;;;;114.05;53.30;;;;;;;0.56;63.93;99822.44;5011013;28;20030;-66
2022/03/17 03:31:35;;;;;;;105.43;51.88;;;;;;;0.62;63.36;99825.34;5010530;28;20022;-66
2022/03/17 03:34:01;;;;;;;104.72;50.35;;;;;;;0.65;63.60;99830.38;5011180;28;20030;-65
2022/03/17 03:39:10;;;;;;;100.97;52.28;;;;;;;0.64;63.16;99834.94;5014728;28;20836;-65
2022/03/17 03:41:36;;;;;;;93.82;47.55;;;;;;;0.64;63.51;99836.78;5014371;28;20026;-66
2022/03/17 03:44:02;;;;;;;98.53;49.70;;;;;;;0.54;62.92;99835.31;5014141;28;20502;-66
2022/03/17 03:46:28;;;;;;;108.97;51.85;;;;;;;0.48;62.99;99835.22;5014886;28;20036;-66
2022/03/17 03:48:54;;;;;;;101.78;51.88;;;;;;;0.41;63.11;99824.41;5014551;28;20069;-66
2022/03/17 03:51:19;;;;;;;108.95;53.47;;;;;;;0.39;63.33;99827.31;5015642;28;20129;-66
2022/03/17 03:56:29;;;;;;;119.75;60.78;;;;;;;0.51;63.66;99832.13;5014842;28;20108;-66
2022/03/17 03:58:55;;;;;;;121.78;59.33;;;;;;;0.55;63.90;99823.47;5014309;28;20105;-66
2022/03/17 04:01:20;;;;;;;113.63;57.47;;;;;;;0.53;63.55;99825.53;5010497;28;20109;-66
2022/03/17 04:03:45;;;;;;;125.80;60.15;;;;;;;0.45;64.27;99820.28;5014444;28;20030;-65
2022/03/17 04:06:11;;;;;;;123.50;58.13;;;;;;;0.33;64.55;99809.19;5014665;28;20439;-66
2022/03/17 04:08:36;;;;;;;120.15;58.67;;;;;;;0.19;65.04;99818.19;5014510;28;20026;-66
2022/03/17 04:11:02;;;;;;;128.68;58.03;;;;;;;0.09;65.32;99813.97;5010846;28;20038;-66
2022/03/17 04:13:27;;;;;;;116.38;58.55;;;;;;;0.03;65.18;99812.03;5014612;28;20057;-66
2022/03/17 04:15:53;;;;;;;116.35;55.65;;;;;;;-0.02;65.72;99803.72;5014553;28;20029;-66
2022/03/17 04:18:18;;;;;;;120.18;59.00;;;;;;;-0.06;65.94;99805.94;5014471;28;20030;-66
2022/03/17 04:20:44;;;;;;;126.80;60.83;;;;;;;-0.14;65.99;99808.75;5013983;28;20022;-66
2022/03/17 04:23:09;;;;;;;125.68;61.38;;;;;;;-0.18;66.58;99808.31;5014363;28;20526;-66
2022/03/17 04:25:35;;;;;;;140.68;67.00;;;;;;;-0.22;66.69;99809.72;5014307;28;20681;-66
2022/03/17 04:28:00;;;;;;;128.93;61.05;;;;;;;-0.24;66.71;99816.34;5014599;28;20030;-66
2022/03/17 04:30:26;;;;;;;137.20;66.38;;;;;;;-0.25;66.60;99817.38;5013648;28;20026;-67
2022/03/17 04:32:52;;;;;;;131.98;60.97;;;;;;;-0.24;66.52;99825.28;5014093;28;20061;-66
2022/03/17 04:35:17;;;;;;;143.20;62.70;;;;;;;-0.26;66.98;99829.19;5014163;28;20100;-66
2022/03/17 04:37:42;;;;;;;142.65;63.08;;;;;;;-0.32;67.38;99830.78;5014210;28;20038;-66
2022/03/17 04:40:08;;;;;;;140.65;63.33;;;;;;;-0.35;67.25;99826.63;5013810;28;20026;-66
2022/03/17 04:42:34;;;;;;;136.27;60.38;;;;;;;-0.36;67.04;99826.78;5013963;28;20029;-66
2022/03/17 04:44:59;;;;;;;135.23;61.60;;;;;;;-0.38;67.10;99835.09;5014048;28;20030;-66
2022/03/17 04:47:25;;;;;;;135.18;62.35;;;;;;;-0.39;67.69;99828.00;5014027;28;20148;-66
2022/03/17 04:49:50;;;;;;;132.20;59.55;;;;;;;-0.42;67.64;99833.78;5013897;28;20029;-66
2022/03/17 04:54:59;;;;;;;136.35;60.72;;;;;;;-0.44;68.22;99838.53;5013850;28;20032;-66
2022/03/17 04:57:27;;;;;;;126.40;61.00;;;;;;;-0.44;68.45;99838.53;5013684;28;20116;-66
2022/03/17 04:59:52;;;;;;;124.32;58.20;;;;;;;-0.48;68.79;99832.69;5013408;28;20034;-66
2022/03/17 05:02:17;;;;;;;119.35;55.45;;;;;;;-0.51;69.00;99830.38;5013486;28;20037;-66
2022/03/17 05:04:43;;;;;;;119.57;55.83;;;;;;;-0.47;69.25;99838.91;5013850;28;20466;-65
2022/03/17 05:07:08;;;;;;;114.97;55.33;;;;;;;-0.47;68.94;99838.91;5013936;28;20379;-65
2022/03/17 05:09:34;;;;;;;113.05;54.13;;;;;;;-0.44;68.78;99833.13;5013391;28;20036;-66
2022/03/17 05:11:59;;;;;;;109.07;53.53;;;;;;;-0.46;68.93;99837.88;5013402;28;20061;-66
2022/03/17 05:14:24;;;;;;;112.90;52.88;;;;;;;-0.41;69.17;99838.16;5013748;28;20037;-66
2022/03/17 05:16:50;;;;;;;107.80;53.33;;;;;;;-0.41;69.05;99842.72;5013530;28;20120;-66
2022/03/17 05:19:15;;;;;;;117.13;57.70;;;;;;;-0.35;68.91;99844.63;5013307;28;20030;-66
2022/03/17 05:21:40;;;;;;;119.40;59.25;;;;;;;-0.25;68.86;99852.44;5013538;28;20026;-66
2022/03/17 05:24:06;;;;;;;110.65;54.22;;;;;;;-0.13;69.09;99855.47;5013822;28;20057;-65
2022/03/17 05:26:31;;;;;;;110.32;56.15;;;;;;;-0.06;68.61;99859.88;5013400;28;20026;-66
2022/03/17 05:28:57;;;;;;;123.00;59.67;;;;;;;0.01;68.62;99867.22;5013482;28;20061;-66
2022/03/17 05:31:23;;;;;;;121.47;60.63;;;;;;;0.12;68.40;99864.00;5013274;28;20567;-65
2022/03/17 05:33:48;;;;;;;117.25;60.78;;;;;;;0.18;68.44;99871.34;5012952;28;20022;-66
2022/03/17 05:36:14;;;;;;;126.00;63.95;;;;;;;0.23;68.11;99882.34;5008502;28;20033;-65
2022/03/17 05:38:39;;;;;;;126.85;63.58;;;;;;;0.31;68.02;99884.13;5012467;28;20046;-65
2022/03/17 05:41:05;;;;;;;132.20;65.45;;;;;;;0.40;67.97;99887.50;5012538;28;20478;-66
2022/03/17 05:43:31;;;;;;;133.63;69.88;;;;;;;0.49;67.83;99885.50;5012880;28;20022;-66
2022/03/17 05:45:57;;;;;;;137.23;72.05;;;;;;;0.57;67.89;99898.84;5012684;28;20363;-66
2022/03/17 05:48:22;;;;;;;151.43;78.47;;;;;;;0.65;67.52;99897.88;5012655;28;20041;-65
2022/03/17 05:50:48;;;;;;;163.23;77.82;;;;;;;0.70;67.66;99898.13;5012943;28;20096;-65
2022/03/17 05:53:13;;;;;;;173.70;80.70;;;;;;;0.77;67.43;99898.19;5012481;28;20464;-65
2022/03/17 05:55:39;;;;;;;157.77;74.85;;;;;;;0.83;67.35;99906.34;5012848;28;20022;-65
2022/03/17 05:58:05;;;;;;;133.18;66.55;;;;;;;0.88;67.09;99903.03;5012377;28;20053;-65
2022/03/17 06:00:31;;;;;;;132.13;61.65;;;;;;;0.93;67.37;99910.56;5011778;28;20503;-66
2022/03/17 06:02:58;;;;;;;111.25;57.05;;;;;;;0.96;67.09;99907.47;5012383;28;20028;-66
2022/03/17 06:05:25;;;;;;;118.18;58.50;;;;;;;0.98;66.90;99911.63;5012627;28;20026;-65
2022/03/17 06:07:53;;;;;;;130.98;68.70;;;;;;;0.95;67.09;99913.91;5012371;28;20034;-65
2022/03/17 06:10:23;;;;;;;122.18;61.78;;;;;;;0.95;67.27;99909.31;5010863;28;20108;-66
2022/03/17 06:12:51;;;;;;;117.05;62.72;;;;;;;0.98;67.33;99922.44;5012224;28;20038;-65
2022/03/17 06:15:17;;;;;;;118.72;60.65;;;;;;;1.01;66.79;99923.94;4994826;28;20529;-65
2022/03/17 06:17:53;;;;;;;121.65;61.67;;;;;;;1.09;67.27;99920.22;5012293;28;20076;-65
2022/03/17 06:20:23;;;;;;;104.18;53.70;;;;;;;1.15;66.86;99927.53;5011648;28;20034;-65
2022/03/17 06:22:51;;;;;;;115.53;57.92;;;;;;;1.14;67.19;99926.69;5012184;28;20026;-65
2022/03/17 06:25:18;;;;;;;130.93;64.40;;;;;;;1.13;67.40;99926.91;5012422;28;20504;-65
2022/03/17 06:27:45;;;;;;;123.57;66.28;;;;;;;1.09;67.37;99929.16;5012410;28;20429;-66
2022/03/17 06:30:19;;;;;;;138.85;71.75;;;;;;;1.07;67.74;99936.63;5011704;28;20022;-65
2022/03/17 06:32:45;;;;;;;133.35;65.40;;;;;;;1.05;67.68;99933.28;5012298;28;20022;-65
2022/03/17 06:35:17;;;;;;;119.07;61.42;;;;;;;1.07;68.00;99935.81;5012526;28;20030;-65
2022/03/17 06:37:44;;;;;;;125.32;62.97;;;;;;;1.07;67.97;99936.63;5012279;28;20402;-65
2022/03/17 06:40:10;;;;;;;126.90;61.85;;;;;;;1.10;68.04;99936.22;5011596;28;20033;-65
2022/03/17 06:42:36;;;;;;;119.90;61.45;;;;;;;1.16;68.34;99945.44;5011812;28;20045;-65
2022/03/17 06:45:01;;;;;;;118.22;58.30;;;;;;;1.23;68.31;99946.28;5012213;28;20101;-65
2022/03/17 06:47:27;;;;;;;108.38;57.10;;;;;;;1.30;68.40;99938.22;5012017;28;20462;-65
2022/03/17 06:49:52;;;;;;;118.82;60.47;;;;;;;1.38;68.21;99951.59;5011787;28;20018;-65
2022/03/17 06:52:20;;;;;;;110.70;57.05;;;;;;;1.46;68.70;99956.00;5011561;28;20033;-66
2022/03/17 06:54:46;;;;;;;115.00;56.92;;;;;;;1.59;67.88;99966.06;5012112;28;20062;-65
2022/03/17 06:57:22;;;;;;;109.07;56.83;;;;;;;1.66;68.58;99969.63;5011408;28;20068;-66
2022/03/17 06:59:48;;;;;;;104.25;52.95;;;;;;;1.73;67.77;99972.34;5011559;28;20030;-66
2022/03/17 07:02:14;;;;;;;110.90;57.05;;;;;;;1.77;68.15;99977.19;5011412;28;20025;-65
2022/03/17 07:04:40;;;;;;;116.65;60.63;;;;;;;1.84;67.91;99979.06;5011751;28;20025;-65
2022/03/17 07:07:06;;;;;;;107.72;56.10;;;;;;;1.91;68.38;99990.75;5011961;28;20022;-66
2022/03/17 07:09:31;;;;;;;112.40;57.85;;;;;;;1.96;68.20;99984.75;5010522;28;20075;-65
2022/03/17 07:11:57;;;;;;;117.78;60.80;;;;;;;1.99;67.56;99987.88;5010596;28;20041;-65
2022/03/17 07:14:22;;;;;;;108.45;54.78;;;;;;;2.08;67.96;99991.22;5011482;28;20508;-66
2022/03/17 07:16:47;;;;;;;114.90;59.22;;;;;;;2.17;68.16;99992.72;5011560;28;20026;-65
2022/03/17 07:19:13;;;;;;;107.88;57.08;;;;;;;2.30;67.67;99991.09;5011277;28;20389;-65
2022/03/17 07:21:39;;;;;;;109.38;55.28;;;;;;;2.38;67.59;99994.47;5009953;28;20033;-65
2022/03/17 07:24:06;;;;;;;109.97;54.50;;;;;;;2.46;67.13;99998.84;5011560;28;20026;-65
2022/03/17 07:26:31;;;;;;;107.53;57.50;;;;;;;2.53;67.42;99994.28;5011353;28;20034;-65
2022/03/17 07:28:57;;;;;;;106.15;55.00;;;;;;;2.62;66.94;99992.22;5011103;28;20387;-65
2022/03/17 07:31:27;;;;;;;109.53;57.40;;;;;;;2.68;66.94;99994.09;4993841;28;20026;-65
2022/03/17 07:33:53;;;;;;;106.63;55.40;;;;;;;2.75;66.47;99983.28;5011228;28;20026;-65
2022/03/17 07:36:18;;;;;;;109.85;55.45;;;;;;;2.81;66.09;99981.59;5011336;28;20029;-65
2022/03/17 07:38:44;;;;;;;106.35;56.85;;;;;;;2.84;65.98;99978.47;5010825;28;20104;-65
2022/03/17 07:41:09;;;;;;;98.90;52.22;;;;;;;2.90;66.02;99984.94;5010363;28;20026;-65
2022/03/17 07:43:35;;;;;;;105.45;53.40;;;;;;;2.97;65.47;99988.47;5010539;28;20033;-66
2022/03/17 07:46:00;;;;;;;95.93;51.25;;;;;;;3.06;65.70;99994.53;5011105;28;20022;-65
2022/03/17 07:48:26;;;;;;;102.93;52.78;;;;;;;3.19;64.98;99996.41;5011110;28;20033;-65
2022/03/17 07:50:51;;;;;;;103.57;55.47;;;;;;;3.26;65.55;99992.66;5011434;28;20029;-65
2022/03/17 07:53:17;;;;;;;96.75;51.90;;;;;;;3.39;64.83;99993.69;4993506;28;20422;-66
2022/03/17 07:55:43;;;;;;;91.07;49.95;;;;;;;3.49;64.48;99990.53;5011482;28;20494;-65
2022/03/17 07:58:12;;;;;;;100.10;52.40;;;;;;;3.62;63.98;99995.09;5010692;28;20129;-63
2022/03/17 08:00:39;;;;;;;92.85;50.72;;;;;;;3.74;64.29;99987.97;5011106;28;20096;-64
2022/03/17 08:03:05;;;;;;;92.45;47.35;;;;;;;3.83;63.66;99989.41;5010215;28;20014;-63
2022/03/17 08:05:31;;;;;;;94.85;51.70;;;;;;;3.95;62.64;99991.44;5010617;28;20030;-64
2022/03/17 08:07:56;;;;;;;89.15;49.28;;;;;;;4.08;63.46;99988.66;5009254;28;20277;-64
2022/03/17 08:10:22;;;;;;;94.97;50.00;;;;;;;4.23;62.87;99990.28;5009305;28;20067;-65
2022/03/17 08:12:48;;;;;;;95.55;51.28;;;;;;;4.36;62.65;99990.19;5010588;28;20030;-65
2022/03/17 08:15:14;;;;;;;91.70;50.17;;;;;;;4.52;61.86;99986.13;5010841;28;20486;-65
2022/03/17 08:17:39;;;;;;;91.47;49.55;;;;;;;4.70;61.49;99995.44;5010802;28;20065;-65
2022/03/17 08:20:06;;;;;;;94.00;50.60;;;;;;;4.83;61.83;99983.63;5009836;28;20105;-65
2022/03/17 08:22:32;;;;;;;87.95;49.45;;;;;;;4.99;60.99;99991.25;5011504;28;20034;-65
2022/03/17 08:24:57;;;;;;;86.25;46.47;;;;;;;5.11;60.58;99990.50;5014991;28;20029;-64
2022/03/17 08:27:23;;;;;;;95.97;52.60;;;;;;;5.19;60.85;99993.81;5015017;28;20129;-65
2022/03/17 08:29:48;;;;;;;94.10;49.95;;;;;;;5.33;60.70;99997.22;4995794;28;20034;-65
2022/03/17 08:32:15;;;;;;;88.57;49.25;;;;;;;5.42;59.33;99999.66;5012652;28;20578;-64
2022/03/17 08:34:40;;;;;;;88.35;46.75;;;;;;;5.48;58.72;99990.63;5009722;28;20033;-64
2022/03/17 08:37:06;;;;;;;81.93;46.22;;;;;;;5.63;59.20;99998.41;5013909;28;20046;-64
2022/03/17 08:39:31;;;;;;;80.97;45.58;;;;;;;5.75;59.41;99991.13;5009846;28;20534;-65
2022/03/17 08:41:56;;;;;;;68.20;38.28;;;;;;;5.89;58.53;99994.56;5013950;28;20026;-64
2022/03/17 08:44:23;;;;;;;63.40;36.75;;;;;;;6.00;57.47;99995.72;5006199;28;20075;-64
2022/03/17 08:49:33;;;;;;;64.85;36.33;;;;;;;6.36;56.87;99994.00;5012864;28;20041;-65
2022/03/17 08:51:59;;;;;;;60.65;34.83;;;;;;;6.55;55.74;100000.22;5012765;28;20026;-65
2022/03/17 08:54:27;;;;;;;63.15;35.25;;;;;;;6.70;54.86;99996.25;5009187;28;20033;-65
2022/03/17 08:57:01;;;;;;;61.42;33.85;;;;;;;6.84;53.83;99991.44;5012689;28;20021;-65
2022/03/17 08:59:30;;;;;;;65.50;35.35;;;;;;;7.03;53.85;99996.78;5012251;28;20030;-66
2022/03/17 09:01:59;;;;;;;57.97;34.22;;;;;;;7.22;54.11;99990.19;5012470;28;20060;-67
2022/03/17 09:04:25;;;;;;;55.75;32.03;;;;;;;7.41;53.03;99999.09;5011614;28;20022;-66
2022/03/17 09:06:51;;;;;;;52.13;31.15;;;;;;;7.56;51.29;99992.28;5012826;28;20061;-66
2022/03/17 09:09:16;;;;;;;53.75;29.55;;;;;;;7.65;50.94;99995.50;5011476;28;20112;-66
2022/03/17 09:11:41;;;;;;;52.03;30.42;;;;;;;7.77;50.85;99995.50;5010503;28;20103;-66
2022/03/17 09:14:08;;;;;;;44.08;26.15;;;;;;;7.81;48.30;99994.75;5027134;28;20033;-66
2022/03/17 09:16:34;;;;;;;40.80;24.42;;;;;;;7.85;47.46;99989.66;5012339;28;20030;-66
2022/03/17 09:18:59;;;;;;;44.83;26.15;;;;;;;7.85;46.86;99985.03;5012240;28;21352;-65
2022/03/17 09:21:27;;;;;;;38.60;24.02;;;;;;;7.99;47.52;99996.50;5001444;28;20029;-66
2022/03/17 09:57:31;;;;;;;22.35;13.02;;;;;;;9.22;40.13;99994.41;5302611;22;20519;-70
2022/03/17 09:59:58;;;;;;;22.13;14.38;;;;;;;9.29;40.24;99994.25;5005911;28;20060;-71
2022/03/17 10:02:25;;;;;;;22.02;14.30;;;;;;;9.36;40.56;99997.66;5010448;28;20422;-71
2022/03/17 10:04:51;;;;;;;18.80;11.30;;;;;;;9.33;38.56;99986.34;5010141;28;20091;-70
2022/03/17 10:07:19;;;;;;;19.38;11.77;;;;;;;9.31;38.83;100000.31;5009573;28;20039;-70
2022/03/17 10:09:49;;;;;;;19.15;11.75;;;;;;;9.36;39.00;99989.44;5010551;28;20037;-69
2022/03/17 10:12:20;;;;;;;20.60;12.60;;;;;;;9.45;39.58;99981.63;5009423;28;20117;-69
2022/03/17 10:14:49;;;;;;;17.27;11.57;;;;;;;9.58;39.60;99990.56;5009770;28;20485;-70
2022/03/17 10:17:41;;;;;;;19.58;13.00;;;;;;;9.64;39.63;99995.84;5011109;28;20041;-70
2022/03/17 10:20:22;;;;;;;19.38;11.55;;;;;;;9.76;38.92;99994.94;5010740;28;20032;-69
2022/03/17 10:22:48;;;;;;;16.55;10.40;;;;;;;9.91;39.51;99988.81;5011756;28;20026;-69
2022/03/17 10:25:17;;;;;;;18.08;10.80;;;;;;;10.00;38.89;99992.75;5012461;28;20033;-70
2022/03/17 10:27:49;;;;;;;18.57;12.00;;;;;;;10.11;39.17;99986.31;5011945;28;20030;-79
2022/03/17 10:30:21;;;;;;;16.10;11.18;;;;;;;10.13;37.50;99980.59;5012282;28;20034;-79
2022/03/17 10:32:55;;;;;;;17.50;11.60;;;;;;;10.16;37.83;99987.47;5011110;28;20128;-70
2022/03/17 10:35:34;;;;;;;18.90;11.60;;;;;;;10.25;37.08;99983.19;5012128;28;20513;-69
2022/03/17 10:38:19;;;;;;;19.33;12.27;;;;;;;10.36;38.19;99989.63;5012319;28;20034;-69
2022/03/17 10:41:00;;;;;;;18.67;11.73;;;;;;;10.46;37.96;99987.03;5007786;28;20026;-69
2022/03/17 10:43:26;;;;;;;16.50;10.77;;;;;;;10.53;37.85;99981.31;5011639;28;20057;-69
2022/03/17 10:46:18;;;;;;;17.98;11.57;;;;;;;10.52;36.43;99977.78;5011576;28;20022;-70
2022/03/17 10:48:58;;;;;;;15.18;10.50;;;;;;;10.62;36.07;99978.94;5012103;28;20405;-69
2022/03/17 10:51:37;;;;;;;17.25;10.45;;;;;;;10.66;35.07;99975.44;5007039;28;20025;-70
2022/03/17 10:54:06;;;;;;;13.23;8.93;;;;;;;10.77;35.99;99976.34;5010641;28;20029;-70
2022/03/17 10:56:31;;;;;;;15.68;9.90;;;;;;;10.84;35.17;99976.13;5026980;28;20511;-69
2022/03/17 10:58:59;;;;;;;14.20;9.32;;;;;;;10.99;35.77;99968.03;5010826;28;20053;-69
2022/03/17 11:01:35;;;;;;;16.65;10.20;;;;;;;11.13;34.55;99975.84;5011768;28;20124;-68
2022/03/17 11:04:01;;;;;;;14.50;8.70;;;;;;;11.21;34.55;99975.34;5005425;28;20052;-68
2022/03/17 11:06:28;;;;;;;15.32;8.88;;;;;;;11.38;35.44;99963.38;5009211;28;20139;-69
2022/03/17 11:08:55;;;;;;;12.82;7.93;;;;;;;11.53;35.37;99965.38;5006629;28;20210;-69
2022/03/17 11:11:20;;;;;;;13.80;9.00;;;;;;;11.60;34.43;99971.47;5011363;28;20053;-69
2022/03/17 11:13:46;;;;;;;13.88;9.10;;;;;;;11.58;33.73;99969.00;5010351;28;20462;-69
2022/03/17 11:16:14;;;;;;;14.10;8.70;;;;;;;11.44;32.92;99968.63;5011402;28;20372;-70
2022/03/17 11:18:43;;;;;;;13.07;8.43;;;;;;;11.39;31.89;99968.63;5010319;28;20079;-68
2022/03/17 11:21:21;;;;;;;13.25;8.70;;;;;;;11.40;33.12;99967.53;5010681;28;20030;-68
2022/03/17 11:23:58;;;;;;;14.20;8.68;;;;;;;11.50;33.35;99961.28;5010118;28;20026;-70
2022/03/17 11:26:45;;;;;;;14.25;9.40;;;;;;;11.56;33.23;99960.22;5007145;28;20037;-69
2022/03/17 11:29:18;;;;;;;13.75;8.90;;;;;;;11.57;34.15;99956.38;5006680;28;20037;-69
2022/03/17 11:31:56;;;;;;;13.70;8.00;;;;;;;11.53;32.33;99963.47;5011909;28;20506;-69
2022/03/17 11:34:39;;;;;;;12.55;8.48;;;;;;;11.47;33.03;99959.03;5009584;28;20060;-68
2022/03/17 11:37:16;;;;;;;17.02;9.30;;;;;;;11.50;32.98;99958.53;5009842;28;20022;-68
2022/03/17 11:39:58;;;;;;;15.60;10.10;;;;;;;11.54;32.08;99959.66;5010122;28;20057;-66
2022/03/17 11:42:32;;;;;;;15.48;9.93;;;;;;;11.63;33.55;99948.97;5010235;28;20092;-66
2022/03/17 11:45:30;;;;;;;14.38;9.07;;;;;;;11.73;32.35;99954.53;5011001;28;20029;-65
2022/03/17 11:47:59;;;;;;;13.73;8.18;;;;;;;11.80;32.45;99959.78;4987555;28;20477;-65
2022/03/17 11:50:42;;;;;;;12.90;7.32;;;;;;;11.90;31.52;99951.59;5011276;28;20038;-65
2022/03/17 11:53:21;;;;;;;12.88;8.30;;;;;;;12.00;31.98;99947.25;5009515;28;20389;-66
2022/03/17 11:55:46;;;;;;;13.00;8.37;;;;;;;11.98;32.09;99943.91;5010424;28;20034;-67
2022/03/17 11:58:29;;;;;;;14.38;8.85;;;;;;;11.89;31.84;99947.19;5012387;28;20033;-66
2022/03/17 12:01:22;;;;;;;13.93;8.20;;;;;;;11.77;31.69;99943.81;5013934;28;20116;-66
2022/03/17 12:03:54;;;;;;;13.05;8.60;;;;;;;11.62;31.09;99948.13;5012489;28;20079;-66
2022/03/17 12:06:23;;;;;;;14.50;9.68;;;;;;;11.54;32.27;99940.41;5014693;28;20037;-67
2022/03/17 12:09:07;;;;;;;15.48;10.32;;;;;;;11.39;32.03;99941.16;5012099;28;20030;-66
2022/03/17 12:11:47;;;;;;;16.95;10.70;;;;;;;11.26;32.17;99941.59;5011089;28;20018;-69